Details for EasyJet at EDDH




Go Back


Latest METAR
Local Time

EDDH 201450Z 07009KT 9999 FEW036 04/M04 Q1021 NOSIG

21/02/2018, 15:55:21

Description
Results
EasyJet Logo
Number of Pilots based at EDDH
0 Pilots Based here
Number of EasyJet Flights Departed from EDDH
2 Flights Departed
Number of EasyJet Flights Arrived at EDDH
3 Flights Arrived
Number of EasyJet Schedules Departing from EDDH
51 Schedules
Number of EasyJet Schedules Arriving at EDDH
53 Schedules
Number of EasyJet Schedules Departing from EDDH availible today
13 Schedules Today
Number of EasyJet Schedules Arriving at EDDH availible today
13 Schedules Today
Average Landing Rate at EDDH
-162 fpm
EasyJet Average Landing Rate at EDDH
-143 fpm
Total Fuel Purchased at EDDH by EasyJet
7,567.28 kgs / 16,682.83 lbs

Pilots Based at EDDH


Pilot ID
Pilot Name
Pilot Rank
No. of Flights
No. of Flying Hours
There are no pilots assigned to this hub!   Will you be the first?
Content